Time;durP1;ratioP1;P1;durP2;ratioP2;P2;SDS_P1;SDS_P2;PMS_P1;PMS_P2;Temp;Humidity;BMP_temperature;BMP_pressure;BME280_temperature;BME280_humidity;BME280_pressure;Samples;Min_cycle;Max_cycle;Signal;HPM_P1;HPM_P2
2023/03/09 00:02:46;;;;;;;;;;;;;;;-144.98;100.00;62585.19;4941722;29;19925;-67
2023/03/09 00:05:55;;;;;;;;;;;;;;;-144.98;100.00;62585.19;4936703;29;19934;-68
2023/03/09 00:08:58;;;;;;;;;;;;;;;-144.98;100.00;62585.19;4945659;29;19951;-67
2023/03/09 00:12:02;;;;;;;;;;;;;;;-144.98;100.00;62585.19;4932362;29;19957;-69
2023/03/09 00:15:05;;;;;;;;;;;;;;;-144.98;100.00;62585.19;4955624;29;20334;-68
2023/03/09 00:18:08;;;;;;;;;;;;;;;-144.98;100.00;62585.19;4947049;29;19925;-68
2023/03/09 00:21:14;;;;;;;;;;;;;;;-144.98;100.00;62585.19;4943539;29;19934;-68
2023/03/09 00:24:19;;;;;;;;;;;;;;;-144.98;100.00;62585.19;4941664;29;19925;-68
2023/03/09 00:27:22;;;;;;;;;;;;;;;-144.98;100.00;62585.19;4942045;29;20018;-68
2023/03/09 00:30:25;;;;;;;;;;;;;;;-144.98;100.00;62585.19;4942384;29;20487;-68
2023/03/09 00:33:29;;;;;;;;;;;;;;;-144.98;100.00;62585.19;4937596;29;20279;-68
2023/03/09 00:36:32;;;;;;;;;;;;;;;-144.98;100.00;62585.19;4954747;29;19942;-68
2023/03/09 00:39:35;;;;;;;;;;;;;;;-144.98;100.00;62585.19;4941676;29;20033;-68
2023/03/09 00:42:38;;;;;;;;;;;;;;;-144.98;100.00;62585.19;4935333;29;19974;-69
2023/03/09 00:45:43;;;;;;;;;;;;;;;-144.98;100.00;62585.19;4942991;29;20070;-69
2023/03/09 00:48:46;;;;;;;;;;;;;;;-144.98;100.00;62585.19;4945911;29;20352;-69
2023/03/09 00:51:49;;;;;;;;;;;;;;;-144.98;100.00;62585.19;4927964;29;20018;-69
2023/03/09 00:54:53;;;;;;;;;;;;;;;-144.98;100.00;62585.19;4920082;29;19934;-68
2023/03/09 00:57:56;;;;;;;;;;;;;;;-144.98;100.00;62585.19;4943261;29;19946;-68
2023/03/09 01:01:00;;;;;;;;;;;;;;;-144.98;100.00;62585.19;4942447;29;19929;-68
2023/03/09 01:04:03;;;;;;;;;;;;;;;-144.98;100.00;62585.19;4942212;29;19980;-68
2023/03/09 01:07:06;;;;;;;;;;;;;;;-144.98;100.00;62585.19;4942762;29;19926;-68
2023/03/09 01:10:10;;;;;;;;;;;;;;;-144.98;100.00;62585.19;4933903;29;19977;-68
2023/03/09 01:13:30;;;;;;;;;;;;;;;-144.98;100.00;62585.19;4927663;29;19929;-69
2023/03/09 01:17:04;;;;;;;;;;;;;;;-144.98;100.00;62585.19;4928585;29;19925;-69
2023/03/09 01:20:08;;;;;;;;;;;;;;;-144.98;100.00;62585.19;4943076;29;19978;-68
2023/03/09 01:23:12;;;;;;;;;;;;;;;-144.98;100.00;62585.19;4930856;29;19928;-68
2023/03/09 01:26:16;;;;;;;;;;;;;;;-144.98;100.00;62585.19;4925620;29;19925;-69
2023/03/09 01:29:19;;;;;;;;;;;;;;;-144.98;100.00;62585.19;4940946;29;19976;-69
2023/03/09 01:32:25;;;;;;;;;;;;;;;-144.98;100.00;62585.19;4940110;29;20398;-69
2023/03/09 01:35:28;;;;;;;;;;;;;;;-144.98;100.00;62585.19;4937238;29;20444;-69
2023/03/09 01:38:36;;;;;;;;;;;;;;;-144.98;100.00;62585.19;4940307;29;19955;-69
2023/03/09 01:41:42;;;;;;;;;;;;;;;-144.98;100.00;62585.19;4920149;29;19945;-69
2023/03/09 01:44:45;;;;;;;;;;;;;;;-144.98;100.00;62585.19;4931594;29;19933;-68
2023/03/09 01:47:48;;;;;;;;;;;;;;;-144.98;100.00;62585.19;4924340;29;19970;-69
2023/03/09 01:50:52;;;;;;;;;;;;;;;-144.98;100.00;62585.19;4919013;29;20327;-69
2023/03/09 01:53:55;;;;;;;;;;;;;;;-144.98;100.00;62585.19;4939780;29;20323;-69
2023/03/09 01:57:04;;;;;;;;;;;;;;;-144.98;100.00;62585.19;4941016;29;19925;-69
2023/03/09 02:00:14;;;;;;;;;;;;;;;-144.98;100.00;62585.19;4934453;29;19977;-69
2023/03/09 02:03:26;;;;;;;;;;;;;;;-144.98;100.00;62585.19;4935644;29;19974;-69
2023/03/09 02:06:30;;;;;;;;;;;;;;;-144.98;100.00;62585.19;4939473;29;20029;-68
2023/03/09 02:09:41;;;;;;;;;;;;;;;-144.98;100.00;62585.19;4939964;28;19977;-68
2023/03/09 02:12:52;;;;;;;;;;;;;;;-144.98;100.00;62585.19;4931148;29;19981;-69
2023/03/09 02:15:57;;;;;;;;;;;;;;;-144.98;100.00;62585.19;4913502;29;19926;-69
2023/03/09 02:19:00;;;;;;;;;;;;;;;-144.98;100.00;62585.19;4923036;29;19982;-69
2023/03/09 02:22:03;;;;;;;;;;;;;;;-144.98;100.00;62585.19;4940822;28;20639;-69
2023/03/09 02:25:26;;;;;;;;;;;;;;;-144.98;100.00;62585.19;4931670;29;19925;-69
2023/03/09 02:28:29;;;;;;;;;;;;;;;-144.98;100.00;62585.19;4932422;29;20053;-69
2023/03/09 02:31:33;;;;;;;;;;;;;;;-144.98;100.00;62585.19;4939318;29;19946;-69
2023/03/09 02:34:36;;;;;;;;;;;;;;;-144.98;100.00;62585.19;4925524;29;20373;-68
2023/03/09 02:38:12;;;;;;;;;;;;;;;-144.98;100.00;62585.19;4940710;29;19926;-69
2023/03/09 02:41:57;;;;;;;;;;;;;;;-144.98;100.00;62585.19;4942028;29;19930;-69
2023/03/09 02:45:02;;;;;;;;;;;;;;;-144.98;100.00;62585.19;4940836;29;19929;-69
2023/03/09 02:48:06;;;;;;;;;;;;;;;-144.98;100.00;62585.19;4924143;29;20041;-69
2023/03/09 02:51:11;;;;;;;;;;;;;;;-144.98;100.00;62585.19;4915455;29;19975;-68
2023/03/09 02:54:14;;;;;;;;;;;;;;;-144.98;100.00;62585.19;4903920;29;19928;-69
2023/03/09 02:57:17;;;;;;;;;;;;;;;-144.98;100.00;62585.19;4904116;29;19926;-68
2023/03/09 03:00:22;;;;;;;;;;;;;;;-144.98;100.00;62585.19;4904209;29;20319;-68
2023/03/09 03:03:26;;;;;;;;;;;;;;;-144.98;100.00;62585.19;4903518;29;20326;-68
2023/03/09 03:06:30;;;;;;;;;;;;;;;-144.98;100.00;62585.19;4903796;29;19926;-68
2023/03/09 03:09:33;;;;;;;;;;;;;;;-144.98;100.00;62585.19;4915386;29;19926;-68
2023/03/09 03:12:36;;;;;;;;;;;;;;;-144.98;100.00;62585.19;4914799;29;19982;-68
2023/03/09 03:15:40;;;;;;;;;;;;;;;-144.98;100.00;62585.19;4915919;29;19926;-68
2023/03/09 03:18:44;;;;;;;;;;;;;;;-144.98;100.00;62585.19;4916017;29;19930;-68
2023/03/09 03:21:48;;;;;;;;;;;;;;;-144.98;100.00;62585.19;4917380;29;20010;-69
2023/03/09 03:24:52;;;;;;;;;;;;;;;-144.98;100.00;62585.19;4905704;29;20291;-69
2023/03/09 03:27:55;;;;;;;;;;;;;;;-144.98;100.00;62585.19;4916813;29;19926;-68
2023/03/09 03:30:59;;;;;;;;;;;;;;;-144.98;100.00;62585.19;4917678;29;20425;-69
2023/03/09 03:34:03;;;;;;;;;;;;;;;-144.98;100.00;62585.19;4906240;29;19975;-68
2023/03/09 03:37:13;;;;;;;;;;;;;;;-144.98;100.00;62585.19;4907445;29;19961;-68
2023/03/09 03:40:18;;;;;;;;;;;;;;;-144.98;100.00;62585.19;4918316;29;20419;-69
2023/03/09 03:43:25;;;;;;;;;;;;;;;-144.98;100.00;62585.19;4906885;29;19967;-66
2023/03/09 03:46:30;;;;;;;;;;;;;;;-144.98;100.00;62585.19;4918911;29;19926;-66
2023/03/09 03:49:34;;;;;;;;;;;;;;;-144.98;100.00;62585.19;4888335;29;19931;-66
2023/03/09 03:52:40;;;;;;;;;;;;;;;-144.98;100.00;62585.19;4888218;29;20028;-66
2023/03/09 03:55:44;;;;;;;;;;;;;;;-144.98;100.00;62585.19;4888448;29;19926;-66
2023/03/09 03:58:47;;;;;;;;;;;;;;;-144.98;100.00;62585.19;4899376;29;19994;-67
2023/03/09 04:01:52;;;;;;;;;;;;;;;-144.98;100.00;62585.19;4899104;29;19952;-66
2023/03/09 04:04:56;;;;;;;;;;;;;;;-144.98;100.00;62585.19;4899831;29;20400;-66
2023/03/09 04:07:59;;;;;;;;;;;;;;;-144.98;100.00;62585.19;4900015;29;19927;-66
2023/03/09 04:11:06;;;;;;;;;;;;;;;-144.98;100.00;62585.19;4887928;29;20399;-66
2023/03/09 04:14:10;;;;;;;;;;;;;;;-144.98;100.00;62585.19;4898833;29;19926;-66
2023/03/09 04:17:13;;;;;;;;;;;;;;;-144.98;100.00;62585.19;4898928;29;19934;-66
2023/03/09 04:20:17;;;;;;;;;;;;;;;-144.98;100.00;62585.19;4887880;29;19980;-66
2023/03/09 04:23:22;;;;;;;;;;;;;;;-144.98;100.00;62585.19;4887715;29;19927;-66
2023/03/09 04:26:30;;;;;;;;;;;;;;;-144.98;100.00;62585.19;4887478;29;20037;-66
2023/03/09 04:29:43;;;;;;;;;;;;;;;-144.98;100.00;62585.19;4897669;29;19926;-66
2023/03/09 04:32:48;;;;;;;;;;;;;;;-144.98;100.00;62585.19;4886402;29;19927;-66
2023/03/09 04:35:52;;;;;;;;;;;;;;;-144.98;100.00;62585.19;4897967;29;20031;-66
2023/03/09 04:39:01;;;;;;;;;;;;;;;-144.98;100.00;62585.19;4898274;29;20470;-66
2023/03/09 04:42:08;;;;;;;;;;;;;;;-144.98;100.00;62585.19;4898886;29;20003;-65
2023/03/09 04:45:12;;;;;;;;;;;;;;;-144.98;100.00;62585.19;4880529;29;19931;-65
2023/03/09 04:48:18;;;;;;;;;;;;;;;-144.98;100.00;62585.19;4887160;29;20007;-66
2023/03/09 04:51:21;;;;;;;;;;;;;;;-144.98;100.00;62585.19;4898732;29;19926;-66
2023/03/09 04:54:27;;;;;;;;;;;;;;;-144.98;100.00;62585.19;4897644;29;19926;-66
2023/03/09 04:57:30;;;;;;;;;;;;;;;-144.98;100.00;62585.19;4898409;29;19926;-66
2023/03/09 05:00:35;;;;;;;;;;;;;;;-144.98;100.00;62585.19;4898060;29;20452;-67
2023/03/09 05:03:40;;;;;;;;;;;;;;;-144.98;100.00;62585.19;4886153;29;20007;-66
2023/03/09 05:06:46;;;;;;;;;;;;;;;-144.98;100.00;62585.19;4875859;29;20060;-66
2023/03/09 05:09:50;;;;;;;;;;;;;;;-144.98;100.00;62585.19;4897531;29;19935;-66
2023/03/09 05:12:54;;;;;;;;;;;;;;;-144.98;100.00;62585.19;4886217;29;19930;-65
2023/03/09 05:16:07;;;;;;;;;;;;;;;-144.98;100.00;62585.19;4886867;29;19927;-66
2023/03/09 05:19:11;;;;;;;;;;;;;;;-144.98;100.00;62585.19;4897249;29;19930;-66
2023/03/09 05:22:17;;;;;;;;;;;;;;;-144.98;100.00;62585.19;4886794;29;19961;-64
2023/03/09 05:25:22;;;;;;;;;;;;;;;-144.98;100.00;62585.19;4898535;29;19971;-65
2023/03/09 05:28:27;;;;;;;;;;;;;;;-144.98;100.00;62585.19;4886629;29;19965;-66
2023/03/09 05:31:31;;;;;;;;;;;;;;;-144.98;100.00;62585.19;4886515;29;19926;-65
2023/03/09 05:34:34;;;;;;;;;;;;;;;-144.98;100.00;62585.19;4897855;29;19972;-67
2023/03/09 05:37:37;;;;;;;;;;;;;;;-144.98;100.00;62585.19;4885863;29;19926;-65
2023/03/09 05:40:48;;;;;;;;;;;;;;;-144.98;100.00;62585.19;4886389;29;19931;-66
2023/03/09 05:43:52;;;;;;;;;;;;;;;-144.98;100.00;62585.19;4886255;29;19926;-66
2023/03/09 05:46:55;;;;;;;;;;;;;;;-144.98;100.00;62585.19;4887470;29;20360;-66
2023/03/09 05:49:58;;;;;;;;;;;;;;;-144.98;100.00;62585.19;4897606;29;19926;-65
2023/03/09 05:53:01;;;;;;;;;;;;;;;-144.98;100.00;62585.19;4914713;29;19930;-65
2023/03/09 05:56:21;;;;;;;;;;;;;;;-144.98;100.00;62585.19;4903184;29;19967;-66
2023/03/09 05:59:27;;;;;;;;;;;;;;;-144.98;100.00;62585.19;4914198;29;20002;-67
2023/03/09 06:02:31;;;;;;;;;;;;;;;-144.98;100.00;62585.19;4913062;29;20439;-67
2023/03/09 06:05:35;;;;;;;;;;;;;;;-144.98;100.00;62585.19;4934485;29;19982;-67
2023/03/09 06:08:41;;;;;;;;;;;;;;;-144.98;100.00;62585.19;4934694;29;20406;-67
2023/03/09 06:11:47;;;;;;;;;;;;;;;-144.98;100.00;62585.19;4935099;29;19926;-72
2023/03/09 06:14:55;;;;;;;;;;;;;;;-144.98;100.00;62585.19;4935123;29;19941;-67
2023/03/09 06:18:26;;;;;;;;;;;;;;;-144.98;100.00;62585.19;4924246;29;20041;-68
2023/03/09 06:21:30;;;;;;;;;;;;;;;-144.98;100.00;62585.19;4935487;29;20025;-68
2023/03/09 06:24:33;;;;;;;;;;;;;;;-144.98;100.00;62585.19;4935562;29;20306;-67
2023/03/09 06:27:37;;;;;;;;;;;;;;;-144.98;100.00;62585.19;4930583;29;19925;-67
2023/03/09 06:30:41;;;;;;;;;;;;;;;-144.98;100.00;62585.19;4934591;29;19926;-67
2023/03/09 06:33:46;;;;;;;;;;;;;;;-144.98;100.00;62585.19;4934491;29;19925;-66
2023/03/09 06:41:03;;;;;;;;;;;;;;;-144.98;100.00;62585.19;4935542;29;20339;-67
2023/03/09 06:48:02;;;;;;;;;;;;;;;-144.98;100.00;62585.19;4925480;29;20021;-68
2023/03/09 06:55:28;;;;;;;;;;;;;;;-144.98;100.00;62585.19;4923695;29;19962;-67
2023/03/09 06:58:35;;;;;;;;;;;;;;;-144.98;100.00;62585.19;4937999;29;20040;-67
2023/03/09 07:01:38;;;;;;;;;;;;;;;-144.98;100.00;62585.19;4926940;29;19974;-68
2023/03/09 07:04:42;;;;;;;;;;;;;;;-144.98;100.00;62585.19;4926986;29;19926;-68
2023/03/09 07:07:45;;;;;;;;;;;;;;;-144.98;100.00;62585.19;4938721;29;20438;-67
2023/03/09 07:10:48;;;;;;;;;;;;;;;-144.98;100.00;62585.19;4938450;29;19926;-68
2023/03/09 07:13:51;;;;;;;;;;;;;;;-144.98;100.00;62585.19;4938844;29;20446;-67
2023/03/09 07:16:55;;;;;;;;;;;;;;;-144.98;100.00;62585.19;4938607;29;19929;-67
2023/03/09 07:19:58;;;;;;;;;;;;;;;-144.98;100.00;62585.19;4937696;29;19930;-68
2023/03/09 07:23:01;;;;;;;;;;;;;;;-144.98;100.00;62585.19;4937277;29;19925;-66
2023/03/09 07:26:04;;;;;;;;;;;;;;;-144.98;100.00;62585.19;4937040;29;19930;-67
2023/03/09 07:29:08;;;;;;;;;;;;;;;-144.98;100.00;62585.19;4938419;29;19925;-67
2023/03/09 07:32:11;;;;;;;;;;;;;;;-144.98;100.00;62585.19;4938248;29;19926;-68
2023/03/09 07:35:14;;;;;;;;;;;;;;;-144.98;100.00;62585.19;4938297;29;19930;-67
2023/03/09 07:38:17;;;;;;;;;;;;;;;-144.98;100.00;62585.19;4938157;29;20336;-69
2023/03/09 07:41:20;;;;;;;;;;;;;;;-144.98;100.00;62585.19;4937579;29;20306;-70
2023/03/09 07:44:24;;;;;;;;;;;;;;;-144.98;100.00;62585.19;4937966;29;19930;-71
2023/03/09 07:47:27;;;;;;;;;;;;;;;-144.98;100.00;62585.19;4937719;29;19929;-71
2023/03/09 07:50:30;;;;;;;;;;;;;;;-144.98;100.00;62585.19;4938043;29;19926;-73
2023/03/09 07:53:34;;;;;;;;;;;;;;;-144.98;100.00;62585.19;4933458;29;19929;-70
2023/03/09 07:56:37;;;;;;;;;;;;;;;-144.98;100.00;62585.19;4937887;29;20055;-67
2023/03/09 07:59:41;;;;;;;;;;;;;;;-144.98;100.00;62585.19;4937845;29;20300;-67
2023/03/09 08:02:44;;;;;;;;;;;;;;;-144.98;100.00;62585.19;4938267;29;19929;-68
2023/03/09 08:05:47;;;;;;;;;;;;;;;-144.98;100.00;62585.19;4926216;29;19930;-68
2023/03/09 08:08:51;;;;;;;;;;;;;;;-144.98;100.00;62585.19;4937695;29;19989;-68
2023/03/09 08:11:54;;;;;;;;;;;;;;;-144.98;100.00;62585.19;4936970;29;20013;-68
2023/03/09 08:14:56;;;;;;;;;;;;;;;-144.98;100.00;62585.19;4937505;29;19961;-79
2023/03/09 08:18:00;;;;;;;;;;;;;;;-144.98;100.00;62585.19;4937602;29;19926;-68
2023/03/09 08:21:04;;;;;;;;;;;;;;;-144.98;100.00;62585.19;4938097;29;19933;-68
2023/03/09 08:24:07;;;;;;;;;;;;;;;-144.98;100.00;62585.19;4937604;29;19926;-67
2023/03/09 08:27:10;;;;;;;;;;;;;;;-144.98;100.00;62585.19;4937596;29;20125;-67
2023/03/09 08:30:14;;;;;;;;;;;;;;;-144.98;100.00;62585.19;4937287;29;19925;-67
2023/03/09 08:33:17;;;;;;;;;;;;;;;-144.98;100.00;62585.19;4937609;29;19974;-67
2023/03/09 08:36:20;;;;;;;;;;;;;;;-144.98;100.00;62585.19;4937307;29;19926;-68
2023/03/09 08:39:23;;;;;;;;;;;;;;;-144.98;100.00;62585.19;4937138;29;20044;-67
2023/03/09 08:42:26;;;;;;;;;;;;;;;-144.98;100.00;62585.19;4936512;29;20251;-67
2023/03/09 08:45:29;;;;;;;;;;;;;;;-144.98;100.00;62585.19;4937002;29;19942;-67
2023/03/09 08:48:32;;;;;;;;;;;;;;;-144.98;100.00;62585.19;4936914;29;20409;-67
2023/03/09 08:51:35;;;;;;;;;;;;;;;-144.98;100.00;62585.19;4937119;29;19925;-68
2023/03/09 08:54:39;;;;;;;;;;;;;;;-144.98;100.00;62585.19;4937084;29;19941;-68
2023/03/09 08:57:44;;;;;;;;;;;;;;;-144.98;100.00;62585.19;4936889;29;20307;-67
2023/03/09 09:00:48;;;;;;;;;;;;;;;-144.98;100.00;62585.19;4936215;29;20044;-67
2023/03/09 09:03:50;;;;;;;;;;;;;;;-144.98;100.00;62585.19;4935221;29;20401;-68
2023/03/09 09:06:54;;;;;;;;;;;;;;;-144.98;100.00;62585.19;4935422;29;19930;-68
2023/03/09 09:09:58;;;;;;;;;;;;;;;-144.98;100.00;62585.19;4936615;29;19985;-68
2023/03/09 09:13:02;;;;;;;;;;;;;;;-144.98;100.00;62585.19;4935719;29;19926;-67
2023/03/09 09:16:06;;;;;;;;;;;;;;;-144.98;100.00;62585.19;4936116;29;19925;-67
2023/03/09 09:19:09;;;;;;;;;;;;;;;-144.98;100.00;62585.19;4934575;29;19957;-68
2023/03/09 09:22:13;;;;;;;;;;;;;;;-144.98;100.00;62585.19;4936083;29;19926;-68
2023/03/09 09:25:16;;;;;;;;;;;;;;;-144.98;100.00;62585.19;4936114;29;19926;-68
2023/03/09 09:28:19;;;;;;;;;;;;;;;-144.98;100.00;62585.19;4936363;29;20351;-67
2023/03/09 09:31:23;;;;;;;;;;;;;;;-144.98;100.00;62585.19;4936506;29;19926;-68
2023/03/09 09:34:33;;;;;;;;;;;;;;;-144.98;100.00;62585.19;4936326;29;19926;-68
2023/03/09 09:37:36;;;;;;;;;;;;;;;-144.98;100.00;62585.19;4936292;29;19973;-67
2023/03/09 09:40:41;;;;;;;;;;;;;;;-144.98;100.00;62585.19;4935643;29;19977;-67
2023/03/09 09:47:34;;;;;;;;;;;;;;;-144.98;100.00;62585.19;4924253;29;20315;-68
2023/03/09 09:50:56;;;;;;;;;;;;;;;-144.98;100.00;62585.19;4921636;29;19926;-70
2023/03/09 09:54:14;;;;;;;;;;;;;;;-144.98;100.00;62585.19;4936347;29;20422;-69
2023/03/09 09:57:30;;;;;;;;;;;;;;;-144.98;100.00;62585.19;4936136;29;19954;-69
2023/03/09 10:00:42;;;;;;;;;;;;;;;-144.98;100.00;62585.19;4935468;29;19978;-78
2023/03/09 10:03:46;;;;;;;;;;;;;;;-144.98;100.00;62585.19;4935740;29;19965;-69
2023/03/09 10:06:51;;;;;;;;;;;;;;;-144.98;100.00;62585.19;4935485;29;19926;-69
2023/03/09 10:10:01;;;;;;;;;;;;;;;-144.98;100.00;62585.19;4935741;29;20021;-69
2023/03/09 10:13:10;;;;;;;;;;;;;;;-144.98;100.00;62585.19;4935689;29;19945;-72
2023/03/09 10:16:16;;;;;;;;;;;;;;;-144.98;100.00;62585.19;4934129;29;19925;-70
2023/03/09 10:19:23;;;;;;;;;;;;;;;-144.98;100.00;62585.19;4934482;29;20021;-71
2023/03/09 10:22:27;;;;;;;;;;;;;;;-144.98;100.00;62585.19;4935269;29;19926;-74
2023/03/09 10:25:31;;;;;;;;;;;;;;;-144.98;100.00;62585.19;4935554;29;19929;-70
2023/03/09 10:28:39;;;;;;;;;;;;;;;-144.98;100.00;62585.19;4935808;29;19926;-70
2023/03/09 10:31:47;;;;;;;;;;;;;;;-144.98;100.00;62585.19;4938611;29;20500;-69
2023/03/09 10:34:53;;;;;;;;;;;;;;;-144.98;100.00;62585.19;4939250;29;20018;-68
2023/03/09 10:37:56;;;;;;;;;;;;;;;-144.98;100.00;62585.19;4938431;29;20299;-69
2023/03/09 10:40:59;;;;;;;;;;;;;;;-144.98;100.00;62585.19;4939273;29;19966;-69
2023/03/09 10:44:03;;;;;;;;;;;;;;;-144.98;100.00;62585.19;4939260;29;20301;-70
2023/03/09 10:47:06;;;;;;;;;;;;;;;-144.98;100.00;62585.19;4939062;29;20303;-75
2023/03/09 10:50:11;;;;;;;;;;;;;;;-144.98;100.00;62585.19;4939295;29;20006;-75
2023/03/09 10:53:22;;;;;;;;;;;;;;;-144.98;100.00;62585.19;4938969;29;19947;-77
2023/03/09 10:56:26;;;;;;;;;;;;;;;-144.98;100.00;62585.19;4938917;29;20066;-71
2023/03/09 10:59:30;;;;;;;;;;;;;;;-144.98;100.00;62585.19;4938860;29;19930;-70
2023/03/09 11:02:35;;;;;;;;;;;;;;;-144.98;100.00;62585.19;4938978;29;19925;-70
2023/03/09 11:05:38;;;;;;;;;;;;;;;-144.98;100.00;62585.19;4938996;29;19926;-70
2023/03/09 11:08:53;;;;;;;;;;;;;;;-144.98;100.00;62585.19;4938871;29;19926;-70
2023/03/09 11:12:14;;;;;;;;;;;;;;;-144.98;100.00;62585.19;4938780;29;19974;-70
2023/03/09 11:15:17;;;;;;;;;;;;;;;-144.98;100.00;62585.19;4937877;29;19926;-70
2023/03/09 11:18:28;;;;;;;;;;;;;;;-144.98;100.00;62585.19;4938704;29;20394;-69
2023/03/09 11:21:32;;;;;;;;;;;;;;;-144.98;100.00;62585.19;4938558;29;19930;-70
2023/03/09 11:24:42;;;;;;;;;;;;;;;-144.98;100.00;62585.19;4938642;29;20403;-70
2023/03/09 11:27:49;;;;;;;;;;;;;;;-144.98;100.00;62585.19;4938821;29;19969;-69
2023/03/09 11:30:54;;;;;;;;;;;;;;;-144.98;100.00;62585.19;4938471;29;19926;-70
2023/03/09 11:33:58;;;;;;;;;;;;;;;-144.98;100.00;62585.19;4937831;29;19925;-70
2023/03/09 11:37:11;;;;;;;;;;;;;;;-144.98;100.00;62585.19;4938351;29;19925;-70
2023/03/09 11:40:16;;;;;;;;;;;;;;;-144.98;100.00;62585.19;4926283;29;19949;-70
2023/03/09 11:43:48;;;;;;;;;;;;;;;-144.98;100.00;62585.19;4937682;29;19926;-70
2023/03/09 11:46:54;;;;;;;;;;;;;;;-144.98;100.00;62585.19;4937992;29;20291;-70
2023/03/09 11:50:15;;;;;;;;;;;;;;;-144.98;100.00;62585.19;4938180;29;19968;-70
2023/03/09 11:53:18;;;;;;;;;;;;;;;-144.98;100.00;62585.19;4938142;29;19974;-72
2023/03/09 11:56:28;;;;;;;;;;;;;;;-144.98;100.00;62585.19;4938251;29;19926;-69
2023/03/09 11:59:36;;;;;;;;;;;;;;;-144.98;100.00;62585.19;4938226;29;19929;-67
2023/03/09 12:03:11;;;;;;;;;;;;;;;-144.98;100.00;62585.19;4916758;29;19925;-68
2023/03/09 12:06:32;;;;;;;;;;;;;;;-144.98;100.00;62585.19;4938387;29;19929;-70
2023/03/09 12:10:36;;;;;;;;;;;;;;;-144.98;100.00;62585.19;4935825;29;19925;-69
2023/03/09 12:13:49;;;;;;;;;;;;;;;-144.98;100.00;62585.19;4937737;29;19990;-69
2023/03/09 12:17:03;;;;;;;;;;;;;;;-144.98;100.00;62585.19;4935198;29;19926;-69
2023/03/09 12:20:06;;;;;;;;;;;;;;;-144.98;100.00;62585.19;4936357;29;19930;-69
2023/03/09 12:23:28;;;;;;;;;;;;;;;-144.98;100.00;62585.19;4937617;29;20413;-69
2023/03/09 12:26:45;;;;;;;;;;;;;;;-144.98;100.00;62585.19;4937852;29;19930;-69
2023/03/09 12:29:54;;;;;;;;;;;;;;;-144.98;100.00;62585.19;4937366;29;19996;-69
2023/03/09 12:33:00;;;;;;;;;;;;;;;-144.98;100.00;62585.19;4937455;29;19925;-70
2023/03/09 12:39:59;;;;;;;;;;;;;;;-144.98;100.00;62585.19;4936028;29;19997;-70
2023/03/09 12:43:14;;;;;;;;;;;;;;;-144.98;100.00;62585.19;4937371;29;19988;-71
2023/03/09 12:46:36;;;;;;;;;;;;;;;-144.98;100.00;62585.19;4937514;29;20018;-71
2023/03/09 12:49:40;;;;;;;;;;;;;;;-144.98;100.00;62585.19;4937202;29;20359;-70
2023/03/09 12:52:52;;;;;;;;;;;;;;;-144.98;100.00;62585.19;4937124;29;20026;-71
2023/03/09 12:55:57;;;;;;;;;;;;;;;-144.98;100.00;62585.19;4936812;29;20390;-69
2023/03/09 12:59:07;;;;;;;;;;;;;;;-144.98;100.00;62585.19;4936767;29;20037;-71
2023/03/09 13:02:37;;;;;;;;;;;;;;;-144.98;100.00;62585.19;4936862;29;19977;-72
2023/03/09 13:05:46;;;;;;;;;;;;;;;-144.98;100.00;62585.19;4936391;29;20307;-72
2023/03/09 13:08:57;;;;;;;;;;;;;;;-144.98;100.00;62585.19;4936903;29;19974;-70
2023/03/09 13:12:14;;;;;;;;;;;;;;;-144.98;100.00;62585.19;4936819;29;19926;-70
2023/03/09 13:15:25;;;;;;;;;;;;;;;-144.98;100.00;62585.19;4936627;29;19926;-69
2023/03/09 13:18:27;;;;;;;;;;;;;;;-144.98;100.00;62585.19;4936644;29;19974;-69
2023/03/09 13:21:42;;;;;;;;;;;;;;;-144.98;100.00;62585.19;4936647;29;20029;-68
2023/03/09 13:24:46;;;;;;;;;;;;;;;-144.98;100.00;62585.19;4936914;29;19926;-68
2023/03/09 13:27:51;;;;;;;;;;;;;;;-144.98;100.00;62585.19;4936928;29;20023;-69
2023/03/09 13:30:57;;;;;;;;;;;;;;;-144.98;100.00;62585.19;4936409;29;19928;-69
2023/03/09 13:34:02;;;;;;;;;;;;;;;-144.98;100.00;62585.19;4935882;29;19983;-68
2023/03/09 13:37:07;;;;;;;;;;;;;;;-144.98;100.00;62585.19;4907831;29;19930;-68
2023/03/09 13:40:27;;;;;;;;;;;;;;;-144.98;100.00;62585.19;4933987;29;19933;-68
2023/03/09 13:43:35;;;;;;;;;;;;;;;-144.98;100.00;62585.19;4916841;29;19926;-70
2023/03/09 13:46:40;;;;;;;;;;;;;;;-144.98;100.00;62585.19;4942875;29;20024;-70
2023/03/09 13:49:46;;;;;;;;;;;;;;;-144.98;100.00;62585.19;4921395;29;20366;-69
2023/03/09 13:53:06;;;;;;;;;;;;;;;-144.98;100.00;62585.19;4898360;29;20330;-68
2023/03/09 13:56:13;;;;;;;;;;;;;;;-144.98;100.00;62585.19;4907332;29;19926;-68
2023/03/09 13:59:18;;;;;;;;;;;;;;;-144.98;100.00;62585.19;4907900;29;20025;-68
2023/03/09 14:02:26;;;;;;;;;;;;;;;-144.98;100.00;62585.19;4922568;29;19926;-67
2023/03/09 14:05:31;;;;;;;;;;;;;;;-144.98;100.00;62585.19;4925331;29;19925;-70
2023/03/09 14:08:39;;;;;;;;;;;;;;;-144.98;100.00;62585.19;4923472;29;19955;-69
2023/03/09 14:11:42;;;;;;;;;;;;;;;-144.98;100.00;62585.19;4921805;29;20410;-70
2023/03/09 14:14:46;;;;;;;;;;;;;;;-144.98;100.00;62585.19;4923853;29;19970;-70
2023/03/09 14:17:50;;;;;;;;;;;;;;;-144.98;100.00;62585.19;4925594;29;19926;-69
2023/03/09 14:20:53;;;;;;;;;;;;;;;-144.98;100.00;62585.19;4923078;29;20082;-70
2023/03/09 14:24:20;;;;;;;;;;;;;;;-144.98;100.00;62585.19;4923433;29;20312;-69
2023/03/09 14:27:28;;;;;;;;;;;;;;;-144.98;100.00;62585.19;4911412;29;19979;-69
2023/03/09 14:30:40;;;;;;;;;;;;;;;-144.98;100.00;62585.19;4922415;29;19929;-69
2023/03/09 14:34:06;;;;;;;;;;;;;;;-144.98;100.00;62585.19;4922804;29;20022;-70
2023/03/09 14:37:17;;;;;;;;;;;;;;;-144.98;100.00;62585.19;4933843;29;19973;-70
2023/03/09 14:40:27;;;;;;;;;;;;;;;-144.98;100.00;62585.19;4935494;29;19987;-68
2023/03/09 14:43:55;;;;;;;;;;;;;;;-144.98;100.00;62585.19;4935799;29;20382;-70
2023/03/09 14:46:59;;;;;;;;;;;;;;;-144.98;100.00;62585.19;4937547;29;19941;-70
2023/03/09 14:50:04;;;;;;;;;;;;;;;-144.98;100.00;62585.19;4954938;29;20390;-70
2023/03/09 14:53:15;;;;;;;;;;;;;;;-144.98;100.00;62585.19;4954465;29;19926;-70
2023/03/09 14:56:19;;;;;;;;;;;;;;;-144.98;100.00;62585.19;4953075;29;19925;-70
2023/03/09 14:59:23;;;;;;;;;;;;;;;-144.98;100.00;62585.19;4952942;29;19978;-70
2023/03/09 15:02:26;;;;;;;;;;;;;;;-144.98;100.00;62585.19;4953950;29;19925;-70
2023/03/09 15:05:30;;;;;;;;;;;;;;;-144.98;100.00;62585.19;4954127;29;20335;-70
2023/03/09 15:08:33;;;;;;;;;;;;;;;-144.98;100.00;62585.19;4954456;29;20356;-72
2023/03/09 15:11:36;;;;;;;;;;;;;;;-144.98;100.00;62585.19;4953840;29;20410;-72
2023/03/09 15:14:41;;;;;;;;;;;;;;;-144.98;100.00;62585.19;4950537;29;20009;-70
2023/03/09 15:17:44;;;;;;;;;;;;;;;-144.98;100.00;62585.19;4955733;28;19952;-72
2023/03/09 15:20:48;;;;;;;;;;;;;;;-144.98;100.00;62585.19;4945962;29;19942;-70
2023/03/09 15:23:51;;;;;;;;;;;;;;;-144.98;100.00;62585.19;4957798;28;20013;-71
2023/03/09 15:26:55;;;;;;;;;;;;;;;-144.98;100.00;62585.19;4956453;29;19928;-69
2023/03/09 15:29:58;;;;;;;;;;;;;;;-144.98;100.00;62585.19;4956970;29;19973;-69
2023/03/09 15:33:01;;;;;;;;;;;;;;;-144.98;100.00;62585.19;4957894;29;19962;-68
2023/03/09 15:36:05;;;;;;;;;;;;;;;-144.98;100.00;62585.19;4956970;29;19926;-70
2023/03/09 15:39:09;;;;;;;;;;;;;;;-144.98;100.00;62585.19;4957774;29;19984;-72
2023/03/09 15:42:13;;;;;;;;;;;;;;;-144.98;100.00;62585.19;4957519;29;19965;-71
2023/03/09 15:45:16;;;;;;;;;;;;;;;-144.98;100.00;62585.19;4957724;29;19972;-69
2023/03/09 15:48:19;;;;;;;;;;;;;;;-144.98;100.00;62585.19;4954857;29;19929;-68
2023/03/09 15:51:23;;;;;;;;;;;;;;;-144.98;100.00;62585.19;4957090;29;20290;-68
2023/03/09 15:54:26;;;;;;;;;;;;;;;-144.98;100.00;62585.19;4951767;29;19954;-70
2023/03/09 15:57:30;;;;;;;;;;;;;;;-144.98;100.00;62585.19;4956469;29;19926;-69